Terminal Aerodrome Forecast
Issued by NWS

Home | Current Version | Previous Version | Graphics & Text | Print | Product List | Glossary On
Versions: 1 2 3 4 5 6 7 8 9 10 11 12 13 14 15 16 17 18 19 20 21
000
FTUS41 KCLE 270600 AAA
TAFFDY
TAF AMD
KFDY 270619Z 2706/2806 26004KT 2SM BR BKN008 OVC015
      TEMPO 2708/2712 3/4SM BR OVC003
     FM271500 25006KT P6SM VCSH SCT015 BKN035
     FM271900 28010KT P6SM VCTS BKN035CB OVC100
      TEMPO 2723/2803 2SM TSRA BR OVC015CB
     FM280400 28009KT 6SM BR OVC035=

USA.gov is the U.S. government's official web portal to all federal, state and local government web resources and services.